createdAt,value
2022-10-13T00:00:57.300Z,22.58
2022-10-13T00:03:23.849Z,25.15
2022-10-13T00:05:51.009Z,26.05
2022-10-13T00:08:20.249Z,23.35
2022-10-13T00:10:49.306Z,23.33
2022-10-13T00:13:20.186Z,26.35
2022-10-13T00:15:47.616Z,30.63
2022-10-13T00:18:14.776Z,26.83
2022-10-13T00:20:43.754Z,26.13
2022-10-13T00:23:10.276Z,31.55
2022-10-13T00:25:44.117Z,23.95
2022-10-13T00:28:10.948Z,35.60
2022-10-13T00:30:38.059Z,22.17
2022-10-13T00:33:04.592Z,24.58
2022-10-13T00:35:31.094Z,31.45
2022-10-13T00:37:57.748Z,25.85
2022-10-13T00:40:27.851Z,26.48
2022-10-13T00:42:54.343Z,27.50
2022-10-13T00:45:24.702Z,23.65
2022-10-13T00:47:59.204Z,28.80
2022-10-13T00:50:33.537Z,26.77
2022-10-13T00:53:02.586Z,26.20
2022-10-13T00:55:32.166Z,25.88
2022-10-13T00:58:05.069Z,29.50
2022-10-13T01:00:32.713Z,26.23
2022-10-13T01:02:59.225Z,25.30
2022-10-13T01:05:25.832Z,34.05
2022-10-13T01:07:55.293Z,25.30
2022-10-13T01:10:28.966Z,29.10
2022-10-13T01:15:41.845Z,32.10
2022-10-13T01:21:05.317Z,28.65
2022-10-13T01:23:48.696Z,30.50
2022-10-13T01:26:42.327Z,27.47
2022-10-13T01:29:47.776Z,32.78
2022-10-13T01:32:27.420Z,28.23
2022-10-13T01:35:10.095Z,29.42
2022-10-13T01:37:49.791Z,32.08
2022-10-13T01:40:26.282Z,27.33
2022-10-13T01:43:22.095Z,26.55
2022-10-13T01:45:57.640Z,25.80
2022-10-13T01:48:24.266Z,25.98
2022-10-13T01:50:52.209Z,25.45
2022-10-13T01:53:19.758Z,26.45
2022-10-13T01:55:58.229Z,24.85
2022-10-13T01:58:27.566Z,29.92
2022-10-13T02:01:10.931Z,29.75
2022-10-13T02:04:03.847Z,28.83
2022-10-13T02:06:39.706Z,27.35
2022-10-13T02:09:15.261Z,27.13
2022-10-13T02:11:48.232Z,31.83
2022-10-13T02:14:20.382Z,28.30
2022-10-13T02:16:47.208Z,27.77
2022-10-13T02:19:17.098Z,25.48
2022-10-13T02:21:44.379Z,28.98
2022-10-13T02:24:11.276Z,26.95
2022-10-13T02:26:38.268Z,27.95
2022-10-13T02:29:13.442Z,24.97
2022-10-13T02:31:40.526Z,26.08
2022-10-13T02:34:07.456Z,29.90
2022-10-13T02:36:34.558Z,29.95
2022-10-13T02:39:01.059Z,21.30
2022-10-13T02:41:27.533Z,26.45
2022-10-13T02:43:54.054Z,31.83
2022-10-13T02:46:21.838Z,30.20
2022-10-13T02:48:48.280Z,26.67
2022-10-13T02:51:14.787Z,32.95
2022-10-13T02:53:41.375Z,26.83
2022-10-13T02:56:07.995Z,26.88
2022-10-13T02:58:36.882Z,25.77
2022-10-13T03:01:11.406Z,28.33
2022-10-13T03:03:38.681Z,30.42
2022-10-13T03:06:05.870Z,26.75
2022-10-13T03:08:33.982Z,28.13
2022-10-13T03:11:00.541Z,25.50
2022-10-13T03:13:27.482Z,30.65
2022-10-13T03:16:03.298Z,32.38
2022-10-13T03:18:30.105Z,28.15
2022-10-13T03:20:58.163Z,33.25
2022-10-13T03:23:24.624Z,29.20
2022-10-13T03:25:51.082Z,29.88
2022-10-13T03:28:17.601Z,26.88
2022-10-13T03:30:45.825Z,25.10
2022-10-13T03:33:12.705Z,28.35
2022-10-13T03:35:39.155Z,26.30
2022-10-13T03:38:05.629Z,27.88
2022-10-13T03:40:32.647Z,33.17
2022-10-13T03:42:59.081Z,28.20
2022-10-13T03:45:26.717Z,32.00
2022-10-13T03:47:53.175Z,30.17
2022-10-13T03:50:19.791Z,23.25
2022-10-13T03:52:46.737Z,30.38
2022-10-13T03:55:13.212Z,31.83
2022-10-13T03:57:39.645Z,32.65
2022-10-13T04:00:10.581Z,31.23
2022-10-13T04:02:39.138Z,36.75
2022-10-13T04:05:05.962Z,28.67
2022-10-13T04:07:32.410Z,29.95
2022-10-13T04:10:06.062Z,34.83
2022-10-13T04:12:36.189Z,34.45
2022-10-13T04:15:02.617Z,24.67
2022-10-13T04:17:29.124Z,40.40
2022-10-13T04:19:55.579Z,40.13
2022-10-13T04:22:22.467Z,37.53
2022-10-13T04:24:49.282Z,21.23
2022-10-13T04:27:16.927Z,36.15
2022-10-13T04:29:43.392Z,34.08
2022-10-13T04:32:09.854Z,31.05
2022-10-13T04:34:36.350Z,44.05
2022-10-13T04:37:02.789Z,42.03
2022-10-13T04:39:29.253Z,37.42
2022-10-13T04:41:55.764Z,39.65
2022-10-13T04:44:22.233Z,40.67
2022-10-13T04:46:48.742Z,41.53
2022-10-13T04:49:16.302Z,38.80
2022-10-13T04:51:42.897Z,36.20
2022-10-13T04:54:09.977Z,36.28
2022-10-13T04:56:36.670Z,30.00
2022-10-13T04:59:05.718Z,37.20
2022-10-13T05:01:32.770Z,38.28
2022-10-13T05:04:01.218Z,38.45
2022-10-13T05:06:32.170Z,36.17
2022-10-13T05:08:59.105Z,33.22
2022-10-13T05:11:26.616Z,42.75
2022-10-13T05:13:53.331Z,36.35
2022-10-13T05:16:21.028Z,26.20
2022-10-13T05:18:48.774Z,27.83
2022-10-13T05:21:20.681Z,33.13
2022-10-13T05:23:47.155Z,25.17
2022-10-13T05:26:15.976Z,35.22
2022-10-13T05:28:42.860Z,32.35
2022-10-13T05:31:10.317Z,42.38
2022-10-13T05:33:37.342Z,33.05
2022-10-13T05:36:08.734Z,36.20
2022-10-13T05:38:37.621Z,36.28
2022-10-13T05:41:10.272Z,34.35
2022-10-13T05:43:37.823Z,33.90
2022-10-13T05:46:04.657Z,30.65
2022-10-13T05:48:36.207Z,30.85
2022-10-13T05:51:06.601Z,32.00
2022-10-13T05:53:36.058Z,41.70
2022-10-13T05:56:08.848Z,23.58
2022-10-13T05:58:41.049Z,38.23
2022-10-13T06:01:10.135Z,44.05
2022-10-13T06:03:37.353Z,38.75
2022-10-13T06:06:03.986Z,34.95
2022-10-13T06:08:30.450Z,35.70
2022-10-13T06:10:56.937Z,42.50
2022-10-13T06:13:23.386Z,39.00
2022-10-13T06:15:49.866Z,33.20
2022-10-13T06:18:16.314Z,36.45
2022-10-13T06:20:43.553Z,40.17
2022-10-13T06:23:15.082Z,33.10
2022-10-13T06:25:51.802Z,38.78
2022-10-13T06:28:18.999Z,43.95
2022-10-13T06:30:53.674Z,36.72
2022-10-13T06:33:22.213Z,37.22
2022-10-13T06:35:48.724Z,41.15
2022-10-13T06:38:15.264Z,30.20
2022-10-13T06:40:42.176Z,45.60
2022-10-13T06:43:09.394Z,44.20
2022-10-13T06:45:41.054Z,34.97
2022-10-13T06:48:07.566Z,34.95
2022-10-13T06:50:34.080Z,42.35
2022-10-13T06:53:00.562Z,43.67
2022-10-13T06:55:27.187Z,41.33
2022-10-13T06:57:53.627Z,46.38
2022-10-13T07:00:20.607Z,39.72
2022-10-13T07:02:50.279Z,44.72
2022-10-13T07:05:16.794Z,40.28
2022-10-13T07:07:43.300Z,46.50
2022-10-13T07:10:10.109Z,45.15
2022-10-13T07:12:36.614Z,54.67
2022-10-13T07:15:03.315Z,42.55
2022-10-13T07:17:29.774Z,36.92
2022-10-13T07:19:57.962Z,40.58
2022-10-13T07:22:24.835Z,50.53
2022-10-13T07:24:51.318Z,47.47
2022-10-13T07:27:19.450Z,40.47
2022-10-13T07:29:46.019Z,40.63
2022-10-13T07:32:12.490Z,41.25
2022-10-13T07:34:38.990Z,35.63
2022-10-13T07:37:05.420Z,47.35
2022-10-13T07:39:31.928Z,46.65
2022-10-13T07:41:58.372Z,42.78
2022-10-13T07:44:24.997Z,44.63
2022-10-13T07:46:51.545Z,36.33
2022-10-13T07:49:18.041Z,40.95
2022-10-13T07:51:44.605Z,39.33
2022-10-13T07:54:11.081Z,36.25
2022-10-13T07:56:38.286Z,34.25
2022-10-13T07:59:05.314Z,36.08
2022-10-13T08:01:32.091Z,43.15
2022-10-13T08:03:59.169Z,58.22
2022-10-13T08:06:25.703Z,43.45
2022-10-13T08:08:54.344Z,41.25
2022-10-13T08:11:20.919Z,43.65
2022-10-13T08:13:51.754Z,49.42
2022-10-13T08:16:20.415Z,49.53
2022-10-13T08:18:48.446Z,45.75
2022-10-13T08:24:08.754Z,46.80
2022-10-13T08:26:35.230Z,42.55
2022-10-13T08:29:21.880Z,43.25
2022-10-13T08:34:15.734Z,44.25
2022-10-13T08:36:42.649Z,42.80
2022-10-13T08:39:10.025Z,41.67
2022-10-13T08:41:39.254Z,45.88
2022-10-13T08:47:13.326Z,43.80
2022-10-13T08:49:41.245Z,39.42
2022-10-13T08:52:16.845Z,49.00
2022-10-13T08:54:43.488Z,45.45
2022-10-13T08:57:10.722Z,36.55
2022-10-13T08:59:37.203Z,41.58
2022-10-13T09:02:11.025Z,46.00
2022-10-13T09:04:41.586Z,47.65
2022-10-13T09:07:28.921Z,37.78
2022-10-13T09:09:55.586Z,40.38
2022-10-13T09:12:25.008Z,40.13
2022-10-13T09:15:05.271Z,44.05
2022-10-13T09:17:33.157Z,37.95
2022-10-13T09:20:04.525Z,45.67
2022-10-13T09:22:33.986Z,47.03
2022-10-13T09:25:06.436Z,45.30
2022-10-13T09:27:42.000Z,42.20
2022-10-13T09:30:38.108Z,39.17
2022-10-13T09:33:04.503Z,42.00
2022-10-13T09:35:34.213Z,45.95
2022-10-13T09:38:21.908Z,40.25
2022-10-13T09:41:00.652Z,45.75
2022-10-13T09:44:02.677Z,44.75
2022-10-13T09:46:54.847Z,41.67
2022-10-13T09:49:41.811Z,41.22
2022-10-13T09:52:19.505Z,44.33
2022-10-13T09:54:47.665Z,36.22
2022-10-13T09:57:31.610Z,37.90
2022-10-13T10:02:47.178Z,40.70
2022-10-13T10:08:11.530Z,41.28
2022-10-13T10:10:40.141Z,38.83
2022-10-13T10:13:13.053Z,39.92
2022-10-13T10:15:42.499Z,39.47
2022-10-13T10:18:15.665Z,42.88
2022-10-13T10:20:53.569Z,45.00
2022-10-13T10:23:29.363Z,42.60
2022-10-13T10:26:00.000Z,48.67
2022-10-13T10:28:37.233Z,46.13
2022-10-13T10:31:24.883Z,44.20
2022-10-13T10:34:07.860Z,42.53
2022-10-13T10:36:53.594Z,46.80
2022-10-13T10:39:41.722Z,47.50
2022-10-13T10:42:40.291Z,44.88
2022-10-13T10:45:16.257Z,50.63
2022-10-13T10:47:46.256Z,54.00
2022-10-13T10:50:17.487Z,51.17
2022-10-13T10:53:06.735Z,52.13
2022-10-13T10:55:35.955Z,59.03
2022-10-13T10:58:34.736Z,60.40
2022-10-13T11:01:13.561Z,55.85
2022-10-13T11:03:54.272Z,68.38
2022-10-13T11:06:36.447Z,54.17
2022-10-13T11:09:04.307Z,58.47
2022-10-13T11:11:37.195Z,71.38
2022-10-13T11:14:05.470Z,74.53
2022-10-13T11:16:37.867Z,65.85
2022-10-13T11:19:32.022Z,58.00
2022-10-13T11:21:58.344Z,73.45
2022-10-13T11:24:33.804Z,66.00
2022-10-13T11:27:10.562Z,64.25
2022-10-13T11:29:45.668Z,64.05
2022-10-13T11:32:27.419Z,55.78
2022-10-13T11:35:00.854Z,67.68
2022-10-13T11:37:38.063Z,76.15
2022-10-13T11:40:15.079Z,70.20
2022-10-13T11:43:09.256Z,65.22
2022-10-13T11:45:59.902Z,58.22
2022-10-13T11:48:45.277Z,59.40
2022-10-13T11:51:30.109Z,63.90
2022-10-13T11:54:13.610Z,62.83
2022-10-13T11:56:54.834Z,72.70
2022-10-13T11:59:32.183Z,59.30
2022-10-13T12:02:11.004Z,61.63
2022-10-13T12:04:41.545Z,59.42
2022-10-13T12:07:13.417Z,65.32
2022-10-13T12:09:53.142Z,61.22
2022-10-13T12:12:22.916Z,59.40
2022-10-13T12:14:55.098Z,66.90
2022-10-13T12:17:26.248Z,70.75
2022-10-13T12:19:55.433Z,71.88
2022-10-13T12:22:22.369Z,71.20
2022-10-13T12:25:05.718Z,73.53
2022-10-13T12:27:42.725Z,79.18
2022-10-13T12:30:29.873Z,71.22
2022-10-13T12:32:58.861Z,81.90
2022-10-13T12:35:33.645Z,78.47
2022-10-13T12:38:02.586Z,75.88
2022-10-13T12:40:30.344Z,70.63
2022-10-13T12:42:57.127Z,73.40
2022-10-13T12:45:27.020Z,84.00
2022-10-13T12:47:54.785Z,88.82
2022-10-13T12:50:30.015Z,81.10
2022-10-13T12:53:04.260Z,72.03
2022-10-13T12:55:31.477Z,72.63
2022-10-13T12:57:58.034Z,73.03
2022-10-13T13:00:26.872Z,77.07
2022-10-13T13:03:05.514Z,65.47
2022-10-13T13:05:46.790Z,70.75
2022-10-13T13:08:30.051Z,60.70
2022-10-13T13:10:58.078Z,65.32
2022-10-13T13:13:24.830Z,47.65
2022-10-13T13:15:51.802Z,50.72
2022-10-13T13:18:31.920Z,39.67
2022-10-13T13:20:58.605Z,54.35
2022-10-13T13:23:26.593Z,40.22
2022-10-13T13:26:18.631Z,43.70
2022-10-13T13:28:48.131Z,47.95
2022-10-13T13:31:16.846Z,52.53
2022-10-13T13:33:43.452Z,44.30
2022-10-13T13:36:15.942Z,54.70
2022-10-13T13:38:43.761Z,45.42
2022-10-13T13:41:11.462Z,48.95
2022-10-13T13:43:38.354Z,44.80
2022-10-13T13:46:06.105Z,53.42
2022-10-13T13:48:33.133Z,37.35
2022-10-13T13:51:01.719Z,46.05
2022-10-13T13:53:28.182Z,27.55
2022-10-13T13:55:54.815Z,26.98
2022-10-13T13:58:21.346Z,25.67
2022-10-13T14:00:47.854Z,23.33
2022-10-13T14:03:19.150Z,35.72
2022-10-13T14:05:45.905Z,31.35
2022-10-13T14:08:13.795Z,34.72
2022-10-13T14:10:40.975Z,35.58
2022-10-13T14:13:07.513Z,31.15
2022-10-13T14:15:34.322Z,30.60
2022-10-13T14:18:00.774Z,28.45
2022-10-13T14:20:27.321Z,48.30
2022-10-13T14:22:53.848Z,72.93
2022-10-13T14:25:20.294Z,82.35
2022-10-13T14:27:46.748Z,55.45
2022-10-13T14:30:13.772Z,69.72
2022-10-13T14:32:40.281Z,69.30
2022-10-13T14:35:07.327Z,42.10
2022-10-13T14:37:34.329Z,52.13
2022-10-13T14:40:01.108Z,55.33
2022-10-13T14:42:27.598Z,43.47
2022-10-13T14:44:54.050Z,30.05
2022-10-13T14:47:20.723Z,26.52
2022-10-13T14:49:47.329Z,26.35
2022-10-13T14:52:13.782Z,31.08
2022-10-13T14:54:44.631Z,34.28
2022-10-13T14:57:15.524Z,33.33
2022-10-13T14:59:42.512Z,28.73
2022-10-13T15:02:10.595Z,29.50
2022-10-13T15:04:37.051Z,29.10
2022-10-13T15:07:03.490Z,29.65
2022-10-13T15:09:45.135Z,21.23
2022-10-13T15:12:19.432Z,24.13
2022-10-13T15:14:46.102Z,29.38
2022-10-13T15:17:12.534Z,27.17
2022-10-13T15:19:39.051Z,26.83
2022-10-13T15:22:06.165Z,29.65
2022-10-13T15:24:32.662Z,23.40
2022-10-13T15:27:01.558Z,23.38
2022-10-13T15:29:29.513Z,20.75
2022-10-13T15:32:18.431Z,22.77
2022-10-13T15:34:49.193Z,20.25
2022-10-13T15:37:15.729Z,20.77
2022-10-13T15:39:42.198Z,22.90
2022-10-13T15:42:10.519Z,21.30
2022-10-13T15:47:23.566Z,21.67
2022-10-13T15:49:50.079Z,20.42
2022-10-13T15:52:16.577Z,22.15
2022-10-13T15:54:43.134Z,19.13
2022-10-13T15:57:09.582Z,20.75
2022-10-13T15:59:36.089Z,19.95
2022-10-13T16:02:02.574Z,22.58
2022-10-13T16:04:34.864Z,23.65
2022-10-13T16:09:30.748Z,29.77
2022-10-13T16:11:57.184Z,24.17
2022-10-13T16:14:23.629Z,26.17
2022-10-13T16:16:50.068Z,27.75
2022-10-13T16:19:16.547Z,24.30
2022-10-13T16:21:43.511Z,28.95
2022-10-13T16:24:09.962Z,23.05
2022-10-13T16:26:36.502Z,20.55
2022-10-13T16:29:03.058Z,24.70
2022-10-13T16:31:29.526Z,22.23
2022-10-13T16:33:56.134Z,21.00
2022-10-13T16:36:23.603Z,21.80
2022-10-13T16:38:52.242Z,20.65
2022-10-13T16:41:18.871Z,21.15
2022-10-13T16:43:46.596Z,17.40
2022-10-13T16:46:14.897Z,18.90
2022-10-13T16:48:42.230Z,20.77
2022-10-13T16:51:13.859Z,20.38
2022-10-13T16:53:40.829Z,19.30
2022-10-13T16:56:08.013Z,20.50
2022-10-13T16:58:35.047Z,27.50
2022-10-13T17:01:12.384Z,22.27
2022-10-13T17:03:39.590Z,16.25
2022-10-13T17:06:06.893Z,20.27
2022-10-13T17:08:33.632Z,17.65
2022-10-13T17:11:01.915Z,21.98
2022-10-13T17:13:28.389Z,18.13
2022-10-13T17:15:56.922Z,15.40
2022-10-13T17:18:24.210Z,16.45
2022-10-13T17:21:01.813Z,23.45
2022-10-13T17:23:29.243Z,19.70
2022-10-13T17:25:56.327Z,19.63
2022-10-13T17:28:22.804Z,15.82
2022-10-13T17:30:59.730Z,20.52
2022-10-13T17:33:30.992Z,24.35
2022-10-13T17:36:03.223Z,26.38
2022-10-13T17:38:30.070Z,20.33
2022-10-13T17:41:01.223Z,26.02
2022-10-13T17:43:27.972Z,25.40
2022-10-13T17:45:54.517Z,27.55
2022-10-13T17:48:23.178Z,24.88
2022-10-13T17:50:49.793Z,17.88
2022-10-13T17:53:18.463Z,28.23
2022-10-13T17:55:44.908Z,31.55
2022-10-13T17:58:13.736Z,35.90
2022-10-13T18:01:08.151Z,32.22
2022-10-13T18:03:26.630Z,23.95
2022-10-13T18:05:53.262Z,33.63
2022-10-13T18:08:20.030Z,46.05
2022-10-13T18:11:07.047Z,36.22
2022-10-13T18:13:33.715Z,29.02
2022-10-13T18:16:08.233Z,38.67
2022-10-13T18:18:35.359Z,48.25
2022-10-13T18:21:06.530Z,22.67
2022-10-13T18:23:36.942Z,65.85
2022-10-13T18:26:13.923Z,36.63
2022-10-13T18:28:43.215Z,34.97
2022-10-13T18:31:21.653Z,33.45
2022-10-13T18:33:50.567Z,41.25
2022-10-13T18:36:28.913Z,40.08
2022-10-13T18:39:00.082Z,27.13
2022-10-13T18:41:26.557Z,35.40
2022-10-13T18:43:53.386Z,35.25
2022-10-13T18:46:22.634Z,49.10
2022-10-13T18:48:50.184Z,21.77
2022-10-13T18:51:18.071Z,46.85
2022-10-13T18:53:46.763Z,62.65
2022-10-13T18:56:15.832Z,45.22
2022-10-13T18:58:42.616Z,20.60
2022-10-13T19:01:11.246Z,57.75
2022-10-13T19:03:39.479Z,46.03
2022-10-13T19:06:07.821Z,56.17
2022-10-13T19:08:35.990Z,72.13
2022-10-13T19:11:12.814Z,68.85
2022-10-13T19:13:39.697Z,88.20
2022-10-13T19:16:06.291Z,97.15
2022-10-13T19:18:32.766Z,89.10
2022-10-13T19:20:59.257Z,77.78
2022-10-13T19:23:26.005Z,88.22
2022-10-13T19:25:52.967Z,92.13
2022-10-13T19:28:19.715Z,72.32
2022-10-13T19:30:46.345Z,74.07
2022-10-13T19:33:13.835Z,74.95
2022-10-13T19:38:15.547Z,63.42
2022-10-13T19:40:47.527Z,78.82
2022-10-13T19:43:13.980Z,68.50
2022-10-13T19:45:46.510Z,77.03
2022-10-13T19:48:15.378Z,61.50
2022-10-13T19:50:42.037Z,67.28
2022-10-13T19:53:12.142Z,44.60
2022-10-13T19:55:48.010Z,70.97
2022-10-13T19:58:16.092Z,60.67
2022-10-13T20:00:46.619Z,49.33
2022-10-13T20:03:13.990Z,74.30
2022-10-13T20:05:45.730Z,81.38
2022-10-13T20:08:12.346Z,62.45
2022-10-13T20:10:42.155Z,74.20
2022-10-13T20:13:09.441Z,84.80
2022-10-13T20:15:40.899Z,65.22
2022-10-13T20:18:09.186Z,61.85
2022-10-13T20:20:36.175Z,68.90
2022-10-13T20:23:02.879Z,78.43
2022-10-13T20:25:29.326Z,73.70
2022-10-13T20:27:55.856Z,67.53
2022-10-13T20:30:22.341Z,108.28
2022-10-13T20:32:48.784Z,62.00
2022-10-13T20:35:15.283Z,100.32
2022-10-13T20:37:41.785Z,61.40
2022-10-13T20:40:08.664Z,71.78
2022-10-13T20:42:35.129Z,74.63
2022-10-13T20:45:01.635Z,66.13
2022-10-13T20:47:28.066Z,83.90
2022-10-13T20:49:54.617Z,66.10
2022-10-13T20:52:21.050Z,54.10
2022-10-13T20:54:47.882Z,57.08
2022-10-13T20:57:14.342Z,76.15
2022-10-13T20:59:40.917Z,65.85
2022-10-13T21:02:09.860Z,60.67
2022-10-13T21:04:36.300Z,52.75
2022-10-13T21:07:02.746Z,80.22
2022-10-13T21:09:29.250Z,55.50
2022-10-13T21:11:55.681Z,78.53
2022-10-13T21:14:23.248Z,97.75
2022-10-13T21:16:49.739Z,80.60
2022-10-13T21:19:16.173Z,77.00
2022-10-13T21:21:42.653Z,71.57
2022-10-13T21:24:10.474Z,86.97
2022-10-13T21:26:37.503Z,71.55
2022-10-13T21:29:04.161Z,76.93
2022-10-13T21:31:31.040Z,98.28
2022-10-13T21:33:57.884Z,85.68
2022-10-13T21:36:26.785Z,88.00
2022-10-13T21:38:56.093Z,86.68
2022-10-13T21:41:22.895Z,65.32
2022-10-13T21:43:50.128Z,82.18
2022-10-13T21:46:19.343Z,127.07
2022-10-13T21:48:53.464Z,91.75
2022-10-13T21:51:29.287Z,84.97
2022-10-13T21:53:58.101Z,64.88
2022-10-13T21:56:25.895Z,77.22
2022-10-13T21:58:52.549Z,84.85
2022-10-13T22:01:19.639Z,78.28
2022-10-13T22:03:47.116Z,86.03
2022-10-13T22:06:18.951Z,73.32
2022-10-13T22:08:47.116Z,78.47
2022-10-13T22:11:24.722Z,86.40
2022-10-13T22:13:51.401Z,82.22
2022-10-13T22:16:20.885Z,74.45
2022-10-13T22:18:47.875Z,72.55
2022-10-13T22:21:17.841Z,71.05
2022-10-13T22:23:45.152Z,83.22
2022-10-13T22:26:12.492Z,159.60
2022-10-13T22:28:39.638Z,90.25
2022-10-13T22:31:07.548Z,83.57
2022-10-13T22:33:35.615Z,82.07
2022-10-13T22:36:09.027Z,81.53
2022-10-13T22:38:35.680Z,64.53
2022-10-13T22:41:05.227Z,75.25
2022-10-13T22:43:32.070Z,71.80
2022-10-13T22:46:15.850Z,91.78
2022-10-13T22:48:42.405Z,85.78
2022-10-13T22:51:09.681Z,102.50
2022-10-13T22:53:36.370Z,92.25
2022-10-13T22:56:07.534Z,105.60
2022-10-13T22:58:34.486Z,107.30
2022-10-13T23:01:08.799Z,97.10
2022-10-13T23:03:35.804Z,108.60
2022-10-13T23:06:02.850Z,120.65
2022-10-13T23:08:29.314Z,114.25
2022-10-13T23:10:55.822Z,100.60
2022-10-13T23:13:22.283Z,114.22
2022-10-13T23:15:50.160Z,125.07
2022-10-13T23:18:16.588Z,118.45
2022-10-13T23:20:43.287Z,117.38
2022-10-13T23:23:10.018Z,112.03
2022-10-13T23:25:37.423Z,116.70
2022-10-13T23:28:04.238Z,119.30
2022-10-13T23:30:30.709Z,111.60
2022-10-13T23:32:57.133Z,106.25
2022-10-13T23:35:23.636Z,105.43
2022-10-13T23:37:52.457Z,96.20
2022-10-13T23:40:18.924Z,91.60
2022-10-13T23:42:45.450Z,88.45
2022-10-13T23:45:12.017Z,95.35
2022-10-13T23:47:38.449Z,64.88
2022-10-13T23:50:05.457Z,64.40
2022-10-13T23:52:31.928Z,113.22
2022-10-13T23:54:58.381Z,101.75
2022-10-13T23:57:29.741Z,93.90
2022-10-13T23:59:56.246Z,108.88
